createdAt,value
2023-03-19T00:00:53.830Z,100175.81
2023-03-19T00:03:58.055Z,100170.84
2023-03-19T00:07:02.377Z,100177.91
2023-03-19T00:10:07.012Z,100186.22
2023-03-19T00:13:12.870Z,100178.97
2023-03-19T00:16:16.999Z,100181.13
2023-03-19T00:19:21.082Z,100169.50
2023-03-19T00:22:25.015Z,100164.91
2023-03-19T00:25:29.211Z,100166.28
2023-03-19T00:28:35.732Z,100162.84
2023-03-19T00:31:40.259Z,100156.84
2023-03-19T00:34:44.859Z,100153.72
2023-03-19T00:37:48.851Z,100153.59
2023-03-19T00:40:52.899Z,100149.38
2023-03-19T00:43:59.686Z,100139.31
2023-03-19T00:47:07.664Z,100137.19
2023-03-19T00:50:12.728Z,100136.78
2023-03-19T00:53:16.772Z,100132.16
2023-03-19T00:56:21.624Z,100135.13
2023-03-19T00:59:27.428Z,100127.59
2023-03-19T01:02:32.516Z,100133.72
2023-03-19T01:08:40.962Z,100129.25
2023-03-19T01:11:45.065Z,100126.88
2023-03-19T01:14:50.456Z,100126.84
2023-03-19T01:17:54.340Z,100124.59
2023-03-19T01:20:58.510Z,100123.56
2023-03-19T01:24:03.709Z,100116.09
2023-03-19T01:27:07.803Z,100121.78
2023-03-19T01:30:15.727Z,100124.16
2023-03-19T01:33:55.056Z,100132.66
2023-03-19T01:37:17.470Z,100127.47
2023-03-19T01:40:22.156Z,100126.47
2023-03-19T01:43:27.402Z,100124.81
2023-03-19T01:46:53.132Z,100118.78
2023-03-19T01:50:25.544Z,100122.28
2023-03-19T01:53:46.866Z,100122.50
2023-03-19T01:56:59.968Z,100131.31
2023-03-19T02:00:27.980Z,100130.69
2023-03-19T02:03:34.960Z,100128.81
2023-03-19T02:06:55.370Z,100136.84
2023-03-19T02:10:01.485Z,100127.94
2023-03-19T02:13:06.950Z,100132.50
2023-03-19T02:16:11.326Z,100137.34
2023-03-19T02:19:24.188Z,100141.06
2023-03-19T02:22:31.269Z,100138.91
2023-03-19T02:25:44.996Z,100152.50
2023-03-19T02:28:54.250Z,100156.75
2023-03-19T02:32:05.189Z,100161.13
2023-03-19T02:35:11.188Z,100156.22
2023-03-19T02:38:16.671Z,100161.63
2023-03-19T02:41:21.749Z,100164.22
2023-03-19T02:44:27.415Z,100169.41
2023-03-19T02:47:31.442Z,100175.91
2023-03-19T02:50:35.777Z,100168.66
2023-03-19T02:53:39.786Z,100160.34
2023-03-19T02:56:43.812Z,100169.47
2023-03-19T02:59:49.257Z,100163.88
2023-03-19T03:02:53.321Z,100167.41
2023-03-19T03:05:57.265Z,100163.88
2023-03-19T03:09:01.403Z,100167.91
2023-03-19T03:12:06.449Z,100158.59
2023-03-19T03:15:12.219Z,100166.56
2023-03-19T03:18:16.146Z,100162.22
2023-03-19T03:21:21.756Z,100172.28
2023-03-19T03:24:25.778Z,100174.44
2023-03-19T03:27:29.912Z,100170.31
2023-03-19T03:30:35.692Z,100168.16
2023-03-19T03:33:39.783Z,100172.22
2023-03-19T03:36:43.742Z,100171.78
2023-03-19T03:39:48.648Z,100178.63
2023-03-19T03:42:52.531Z,100183.09
2023-03-19T03:45:58.689Z,100181.84
2023-03-19T03:49:02.942Z,100181.13
2023-03-19T03:52:08.821Z,100183.50
2023-03-19T03:55:12.962Z,100175.63
2023-03-19T03:58:17.171Z,100182.88
2023-03-19T04:01:22.952Z,100183.50
2023-03-19T04:04:31.745Z,100193.06
2023-03-19T04:07:36.208Z,100187.56
2023-03-19T04:10:42.620Z,100190.38
2023-03-19T04:13:47.230Z,100184.34
2023-03-19T04:16:52.869Z,100189.41
2023-03-19T04:19:56.861Z,100191.94
2023-03-19T04:23:00.788Z,100191.19
2023-03-19T04:26:07.342Z,100187.44
2023-03-19T04:29:12.065Z,100189.00
2023-03-19T04:32:17.538Z,100191.94
2023-03-19T04:35:21.908Z,100198.03
2023-03-19T04:38:28.021Z,100198.53
2023-03-19T04:41:32.234Z,100197.41
2023-03-19T04:44:55.757Z,100198.47
2023-03-19T04:48:02.100Z,100195.66
2023-03-19T04:51:09.580Z,100196.06
2023-03-19T04:54:15.125Z,100205.41
2023-03-19T04:57:20.438Z,100198.63
2023-03-19T05:00:28.520Z,100195.94
2023-03-19T05:03:34.123Z,100195.13
2023-03-19T05:06:38.533Z,100203.09
2023-03-19T05:09:44.138Z,100212.84
2023-03-19T05:12:48.412Z,100213.59
2023-03-19T05:15:55.715Z,100223.72
2023-03-19T05:19:01.755Z,100222.81
2023-03-19T05:22:07.012Z,100220.53
2023-03-19T05:25:11.829Z,100224.06
2023-03-19T05:28:17.607Z,100220.03
2023-03-19T05:31:22.136Z,100222.75
2023-03-19T05:34:31.276Z,100226.56
2023-03-19T05:37:35.529Z,100226.69
2023-03-19T05:40:42.238Z,100227.91
2023-03-19T05:43:58.945Z,100237.22
2023-03-19T05:47:25.985Z,100239.41
2023-03-19T05:50:34.740Z,100236.50
2023-03-19T05:53:48.882Z,100238.41
2023-03-19T05:57:11.070Z,100240.13
2023-03-19T06:00:22.507Z,100240.38
2023-03-19T06:03:27.495Z,100241.75
2023-03-19T06:06:35.120Z,100253.69
2023-03-19T06:09:39.478Z,100256.13
2023-03-19T06:12:43.721Z,100266.28
2023-03-19T06:16:10.376Z,100264.97
2023-03-19T06:19:18.079Z,100263.69
2023-03-19T06:22:23.725Z,100266.03
2023-03-19T06:25:27.875Z,100265.31
2023-03-19T06:28:32.040Z,100263.84
2023-03-19T06:31:36.338Z,100261.91
2023-03-19T06:34:48.396Z,100255.97
2023-03-19T06:37:54.225Z,100257.09
2023-03-19T06:40:58.320Z,100253.25
2023-03-19T06:44:02.652Z,100258.41
2023-03-19T06:47:07.466Z,100258.44
2023-03-19T06:50:13.821Z,100246.53
2023-03-19T06:53:19.502Z,100244.22
2023-03-19T06:56:23.602Z,100244.25
2023-03-19T06:59:27.934Z,100246.84
2023-03-19T07:02:32.092Z,100240.31
2023-03-19T07:05:36.316Z,100249.75
2023-03-19T07:08:46.585Z,100236.97
2023-03-19T07:11:50.730Z,100240.69
2023-03-19T07:14:54.830Z,100244.81
2023-03-19T07:17:58.976Z,100239.75
2023-03-19T07:21:03.091Z,100237.22
2023-03-19T07:24:09.031Z,100230.38
2023-03-19T07:27:13.382Z,100225.16
2023-03-19T07:30:17.860Z,100227.44
2023-03-19T07:33:22.348Z,100224.13
2023-03-19T07:36:26.621Z,100220.53
2023-03-19T07:39:32.418Z,100223.88
2023-03-19T07:42:36.931Z,100220.53
2023-03-19T07:45:41.440Z,100221.91
2023-03-19T07:48:45.456Z,100229.38
2023-03-19T07:51:49.577Z,100217.75
2023-03-19T07:54:55.272Z,100212.91
2023-03-19T07:57:59.464Z,100218.44
2023-03-19T08:01:03.796Z,100215.31
2023-03-19T08:04:08.504Z,100223.16
2023-03-19T08:07:13.223Z,100220.72
2023-03-19T08:10:19.019Z,100209.25
2023-03-19T08:13:23.113Z,100218.41
2023-03-19T08:16:27.641Z,100206.88
2023-03-19T08:19:32.261Z,100208.56
2023-03-19T08:22:37.496Z,100206.31
2023-03-19T08:25:43.630Z,100209.66
2023-03-19T08:28:47.728Z,100201.44
2023-03-19T08:31:51.812Z,100191.34
2023-03-19T08:34:56.131Z,100189.41
2023-03-19T08:38:00.265Z,100188.72
2023-03-19T08:41:06.643Z,100184.91
2023-03-19T08:44:10.752Z,100185.47
2023-03-19T08:47:15.023Z,100179.34
2023-03-19T08:50:20.332Z,100171.34
2023-03-19T08:53:25.153Z,100182.59
2023-03-19T08:56:30.626Z,100174.88
2023-03-19T08:59:34.756Z,100173.19
2023-03-19T09:02:39.113Z,100176.16
2023-03-19T09:05:43.236Z,100171.38
2023-03-19T09:08:47.347Z,100167.41
2023-03-19T09:11:53.042Z,100155.13
2023-03-19T09:14:57.137Z,100152.09
2023-03-19T09:18:01.434Z,100149.59
2023-03-19T09:21:06.393Z,100149.84
2023-03-19T09:24:10.963Z,100145.47
2023-03-19T09:27:16.406Z,100140.72
2023-03-19T09:30:20.661Z,100135.00
2023-03-19T09:33:24.830Z,100136.72
2023-03-19T09:36:29.131Z,100141.28
2023-03-19T09:39:33.767Z,100133.91
2023-03-19T09:42:57.705Z,100130.03
2023-03-19T09:46:05.861Z,100122.22
2023-03-19T09:49:22.333Z,100119.94
2023-03-19T09:52:43.358Z,100115.84
2023-03-19T09:55:51.883Z,100102.72
2023-03-19T09:58:57.465Z,100102.81
2023-03-19T10:02:26.456Z,100103.84
2023-03-19T10:05:43.979Z,100099.25
2023-03-19T10:09:00.000Z,100088.22
2023-03-19T10:12:19.467Z,100087.09
2023-03-19T10:15:30.091Z,100075.13
2023-03-19T10:18:39.618Z,100076.47
2023-03-19T10:21:48.868Z,100068.88
2023-03-19T10:24:55.972Z,100063.16
2023-03-19T10:28:03.600Z,100056.88
2023-03-19T10:31:26.373Z,100048.13
2023-03-19T10:34:35.920Z,100040.31
2023-03-19T10:37:40.352Z,100037.03
2023-03-19T10:40:50.947Z,100025.06
2023-03-19T10:43:59.669Z,100016.59
2023-03-19T10:47:14.231Z,100011.31
2023-03-19T10:50:20.740Z,100009.78
2023-03-19T10:53:34.568Z,100003.66
2023-03-19T10:56:47.191Z,99997.47
2023-03-19T10:59:51.321Z,99998.25
2023-03-19T11:02:59.526Z,99980.81
2023-03-19T11:06:09.329Z,99983.44
2023-03-19T11:09:24.949Z,99986.69
2023-03-19T11:12:35.508Z,99978.69
2023-03-19T11:15:40.667Z,99964.19
2023-03-19T11:18:50.326Z,99962.81
2023-03-19T11:22:04.435Z,99958.72
2023-03-19T11:25:19.308Z,99953.16
2023-03-19T11:28:26.958Z,99943.31
2023-03-19T11:31:39.224Z,99943.00
2023-03-19T11:34:52.631Z,99940.38
2023-03-19T11:38:01.068Z,99933.31
2023-03-19T11:41:14.806Z,99926.59
2023-03-19T11:44:24.794Z,99923.03
2023-03-19T11:47:38.083Z,99924.97
2023-03-19T11:50:51.643Z,99923.13
2023-03-19T11:54:06.630Z,99919.81
2023-03-19T11:57:14.360Z,99915.22
2023-03-19T12:00:30.050Z,99905.50
2023-03-19T12:03:59.374Z,99905.81
2023-03-19T12:07:16.028Z,99900.91
2023-03-19T12:10:43.945Z,99889.81
2023-03-19T12:14:03.191Z,99893.44
2023-03-19T12:17:24.950Z,99898.59
2023-03-19T12:20:46.873Z,99896.78
2023-03-19T12:24:05.802Z,99897.59
2023-03-19T12:27:23.807Z,99895.34
2023-03-19T12:30:36.014Z,99897.59
2023-03-19T12:33:48.237Z,99885.75
2023-03-19T12:36:59.278Z,99878.13
2023-03-19T12:40:24.270Z,99872.69
2023-03-19T12:43:33.989Z,99866.72
2023-03-19T12:46:43.748Z,99865.88
2023-03-19T12:49:53.736Z,99858.88
2023-03-19T12:53:02.245Z,99855.28
2023-03-19T12:56:14.924Z,99849.47
2023-03-19T12:59:34.608Z,99846.75
2023-03-19T13:02:44.505Z,99849.78
2023-03-19T13:05:54.904Z,99846.56
2023-03-19T13:09:06.674Z,99835.56
2023-03-19T13:12:19.194Z,99840.28
2023-03-19T13:15:30.778Z,99825.19
2023-03-19T13:18:42.769Z,99821.66
2023-03-19T13:21:50.734Z,99817.81
2023-03-19T13:24:57.134Z,99816.59
2023-03-19T13:28:02.736Z,99810.56
2023-03-19T13:31:09.321Z,99804.66
2023-03-19T13:34:23.251Z,99809.16
2023-03-19T13:37:28.394Z,99796.94
2023-03-19T13:40:44.573Z,99792.25
2023-03-19T13:43:56.980Z,99791.66
2023-03-19T13:47:03.841Z,99784.69
2023-03-19T13:50:28.711Z,99785.53
2023-03-19T13:53:39.898Z,99767.69
2023-03-19T13:57:08.901Z,99772.19
2023-03-19T14:00:45.853Z,99766.28
2023-03-19T14:03:58.806Z,99759.25
2023-03-19T14:07:14.479Z,99756.69
2023-03-19T14:10:25.675Z,99759.84
2023-03-19T14:13:34.957Z,99747.53
2023-03-19T14:16:44.012Z,99746.34
2023-03-19T14:19:51.560Z,99747.28
2023-03-19T14:23:04.936Z,99747.97
2023-03-19T14:26:14.809Z,99748.53
2023-03-19T14:29:20.167Z,99753.69
2023-03-19T14:32:36.068Z,99744.53
2023-03-19T14:35:47.376Z,99741.44
2023-03-19T14:38:54.734Z,99745.22
2023-03-19T14:42:07.552Z,99750.56
2023-03-19T14:45:41.130Z,99739.66
2023-03-19T14:49:11.770Z,99745.25
2023-03-19T14:52:22.367Z,99737.19
2023-03-19T14:55:36.110Z,99740.16
2023-03-19T14:58:50.282Z,99730.50
2023-03-19T15:01:55.577Z,99734.16
2023-03-19T15:05:01.306Z,99731.34
2023-03-19T15:08:13.490Z,99738.59
2023-03-19T15:11:55.278Z,99732.59
2023-03-19T15:15:21.647Z,99738.31
2023-03-19T15:18:27.910Z,99744.03
2023-03-19T15:21:32.541Z,99744.03
2023-03-19T15:24:38.221Z,99749.56
2023-03-19T15:27:43.137Z,99752.00
2023-03-19T15:31:03.579Z,99743.41
2023-03-19T15:34:23.841Z,99751.00
2023-03-19T15:37:32.409Z,99739.28
2023-03-19T15:40:39.835Z,99742.78
2023-03-19T15:43:45.050Z,99744.97
2023-03-19T15:46:50.742Z,99753.09
2023-03-19T15:49:59.384Z,99762.25
2023-03-19T15:53:09.142Z,99760.53
2023-03-19T15:56:17.217Z,99763.72
2023-03-19T15:59:24.894Z,99766.22
2023-03-19T16:02:32.089Z,99772.03
2023-03-19T16:05:36.874Z,99774.50
2023-03-19T16:08:49.252Z,99778.22
2023-03-19T16:11:56.212Z,99776.41
2023-03-19T16:15:00.428Z,99775.53
2023-03-19T16:18:26.927Z,99785.97
2023-03-19T16:21:36.688Z,99785.53
2023-03-19T16:24:43.292Z,99790.97
2023-03-19T16:27:49.597Z,99786.25
2023-03-19T16:30:53.875Z,99788.66
2023-03-19T16:33:58.380Z,99791.66
2023-03-19T16:37:03.660Z,99791.03
2023-03-19T16:40:47.477Z,99797.59
2023-03-19T16:43:55.164Z,99793.63
2023-03-19T16:46:59.219Z,99802.78
2023-03-19T16:50:03.416Z,99805.91
2023-03-19T16:53:16.145Z,99809.00
2023-03-19T16:56:20.995Z,99809.28
2023-03-19T16:59:31.388Z,99818.34
2023-03-19T17:02:35.550Z,99819.81
2023-03-19T17:05:39.605Z,99825.50
2023-03-19T17:08:44.484Z,99829.69
2023-03-19T17:11:48.716Z,99838.25
2023-03-19T17:14:54.504Z,99848.00
2023-03-19T17:17:59.263Z,99848.41
2023-03-19T17:21:07.603Z,99839.84
2023-03-19T17:24:24.933Z,99858.09
2023-03-19T17:27:29.352Z,99861.34
2023-03-19T17:30:35.476Z,99861.03
2023-03-19T17:33:39.883Z,99863.56
2023-03-19T17:36:53.548Z,99859.09
2023-03-19T17:39:57.694Z,99874.25
2023-03-19T17:43:01.987Z,99862.81
2023-03-19T17:46:07.955Z,99870.69
2023-03-19T17:49:20.664Z,99876.78
2023-03-19T17:52:24.954Z,99870.06
2023-03-19T17:55:30.907Z,99881.25
2023-03-19T17:58:35.633Z,99884.53
2023-03-19T18:01:43.336Z,99888.00
2023-03-19T18:04:47.495Z,99881.91
2023-03-19T18:07:54.891Z,99886.16
2023-03-19T18:10:59.270Z,99886.47
2023-03-19T18:14:03.347Z,99895.00
2023-03-19T18:17:09.678Z,99887.78
2023-03-19T18:20:16.012Z,99893.03
2023-03-19T18:23:20.504Z,99902.91
2023-03-19T18:26:24.859Z,99906.00
2023-03-19T18:29:28.930Z,99906.00
2023-03-19T18:32:34.914Z,99906.16
2023-03-19T18:35:41.882Z,99910.75
2023-03-19T18:38:46.130Z,99910.72
2023-03-19T18:41:50.297Z,99919.75
2023-03-19T18:44:54.403Z,99918.06
2023-03-19T18:48:00.771Z,99917.91
2023-03-19T18:51:05.362Z,99920.63
2023-03-19T18:54:11.579Z,99916.19
2023-03-19T18:57:16.351Z,99929.47
2023-03-19T19:00:22.841Z,99930.09
2023-03-19T19:03:29.910Z,99931.44
2023-03-19T19:06:46.906Z,99935.59
2023-03-19T19:09:52.119Z,99939.69
2023-03-19T19:12:57.227Z,99936.78
2023-03-19T19:16:01.999Z,99939.09
2023-03-19T19:19:16.788Z,99944.56
2023-03-19T19:22:21.525Z,99944.19
2023-03-19T19:25:27.553Z,99949.69
2023-03-19T19:28:34.242Z,99954.44
2023-03-19T19:31:38.501Z,99958.56
2023-03-19T19:34:44.173Z,99968.00
2023-03-19T19:37:48.284Z,99969.84
2023-03-19T19:40:55.441Z,99959.94
2023-03-19T19:44:03.487Z,99964.31
2023-03-19T19:47:15.437Z,99976.28
2023-03-19T19:50:22.518Z,99973.00
2023-03-19T19:53:29.122Z,99970.06
2023-03-19T19:56:33.278Z,99972.91
2023-03-19T19:59:39.575Z,99981.69
2023-03-19T20:02:43.670Z,99979.19
2023-03-19T20:05:49.573Z,99985.38
2023-03-19T20:08:53.602Z,99984.56
2023-03-19T20:11:57.822Z,99983.50
2023-03-19T20:15:02.074Z,99977.63
2023-03-19T20:18:07.102Z,99983.91
2023-03-19T20:21:13.004Z,99982.47
2023-03-19T20:24:17.246Z,99987.31
2023-03-19T20:27:24.668Z,99987.59
2023-03-19T20:30:31.089Z,99988.91
2023-03-19T20:33:35.456Z,99994.75
2023-03-19T20:36:41.128Z,99991.88
2023-03-19T20:39:45.764Z,99993.03
2023-03-19T20:42:52.255Z,99998.41
2023-03-19T20:45:56.982Z,99999.75
2023-03-19T20:49:02.348Z,99991.69
2023-03-19T20:52:07.897Z,100001.41
2023-03-19T20:55:17.315Z,100001.91
2023-03-19T20:58:27.870Z,99999.50
2023-03-19T21:01:32.624Z,100008.69
2023-03-19T21:04:36.818Z,100016.28
2023-03-19T21:07:42.849Z,100016.13
2023-03-19T21:10:48.674Z,100023.38
2023-03-19T21:13:54.369Z,100034.41
2023-03-19T21:16:59.264Z,100039.75
2023-03-19T21:20:03.611Z,100039.03
2023-03-19T21:23:17.548Z,100036.34
2023-03-19T21:26:22.854Z,100033.53
2023-03-19T21:29:33.600Z,100031.06
2023-03-19T21:32:37.707Z,100039.97
2023-03-19T21:35:41.851Z,100039.88
2023-03-19T21:38:47.924Z,100039.59
2023-03-19T21:41:52.275Z,100033.22
2023-03-19T21:45:01.223Z,100045.00
2023-03-19T21:48:25.168Z,100045.63
2023-03-19T21:51:30.224Z,100046.38
2023-03-19T21:54:35.839Z,100050.25
2023-03-19T21:57:39.923Z,100053.03
2023-03-19T22:00:44.749Z,100052.63
2023-03-19T22:03:48.922Z,100050.22
2023-03-19T22:06:53.295Z,100049.03
2023-03-19T22:09:58.829Z,100051.69
2023-03-19T22:13:03.154Z,100057.09
2023-03-19T22:16:08.119Z,100051.22
2023-03-19T22:19:15.657Z,100048.84
2023-03-19T22:22:19.773Z,100050.66
2023-03-19T22:25:30.359Z,100051.22
2023-03-19T22:28:36.386Z,100054.50
2023-03-19T22:31:40.553Z,100052.91
2023-03-19T22:34:45.269Z,100045.50
2023-03-19T22:37:49.676Z,100045.31
2023-03-19T22:40:57.504Z,100045.13
2023-03-19T22:44:03.799Z,100039.59
2023-03-19T22:47:08.055Z,100037.13
2023-03-19T22:50:19.036Z,100039.72
2023-03-19T22:53:25.241Z,100036.78
2023-03-19T22:56:30.765Z,100039.56
2023-03-19T22:59:34.882Z,100039.88
2023-03-19T23:02:39.020Z,100043.81
2023-03-19T23:05:47.475Z,100047.09
2023-03-19T23:08:51.608Z,100046.66
2023-03-19T23:11:58.257Z,100045.22
2023-03-19T23:15:02.336Z,100045.88
2023-03-19T23:18:15.220Z,100053.59
2023-03-19T23:21:20.470Z,100054.28
2023-03-19T23:24:24.559Z,100057.75
2023-03-19T23:27:29.908Z,100069.03
2023-03-19T23:30:34.872Z,100066.13
2023-03-19T23:33:38.915Z,100064.50
2023-03-19T23:36:43.896Z,100059.53
2023-03-19T23:39:48.006Z,100047.31
2023-03-19T23:42:57.109Z,100055.81
2023-03-19T23:46:01.405Z,100048.91
2023-03-19T23:49:05.364Z,100045.34
2023-03-19T23:52:15.016Z,100036.88
2023-03-19T23:55:19.916Z,100032.34
2023-03-19T23:58:30.951Z,100041.44
